createdAt,value
2023-01-19T00:00:54.977Z,18.88
2023-01-19T00:03:21.588Z,17.33
2023-01-19T00:05:48.383Z,19.92
2023-01-19T00:08:15.118Z,21.42
2023-01-19T00:10:46.828Z,21.97
2023-01-19T00:13:14.880Z,21.67
2023-01-19T00:15:41.468Z,19.73
2023-01-19T00:18:09.853Z,20.52
2023-01-19T00:20:37.444Z,23.27
2023-01-19T00:23:04.928Z,21.20
2023-01-19T00:25:34.100Z,22.25
2023-01-19T00:28:01.873Z,19.65
2023-01-19T00:30:28.779Z,23.50
2023-01-19T00:32:55.515Z,20.70
2023-01-19T00:35:22.879Z,23.23
2023-01-19T00:37:49.449Z,21.40
2023-01-19T00:40:16.354Z,23.85
2023-01-19T00:42:45.876Z,23.65
2023-01-19T00:45:15.263Z,23.63
2023-01-19T00:47:42.440Z,24.07
2023-01-19T00:50:11.841Z,26.38
2023-01-19T00:52:41.938Z,25.92
2023-01-19T00:55:10.301Z,26.17
2023-01-19T00:57:37.340Z,27.13
2023-01-19T01:00:06.374Z,29.67
2023-01-19T01:02:33.559Z,27.85
2023-01-19T01:05:02.873Z,28.80
2023-01-19T01:07:30.700Z,29.35
2023-01-19T01:09:57.543Z,29.27
2023-01-19T01:12:24.435Z,28.27
2023-01-19T01:14:50.940Z,27.23
2023-01-19T01:17:17.624Z,23.15
2023-01-19T01:19:44.124Z,24.05
2023-01-19T01:22:10.806Z,24.35
2023-01-19T01:24:37.315Z,23.07
2023-01-19T01:27:03.938Z,23.80
2023-01-19T01:29:30.507Z,22.00
2023-01-19T01:31:57.092Z,23.50
2023-01-19T01:34:23.619Z,24.17
2023-01-19T01:36:50.122Z,23.17
2023-01-19T01:39:16.539Z,21.92
2023-01-19T01:41:42.911Z,24.02
2023-01-19T01:44:50.301Z,23.83
2023-01-19T01:47:40.312Z,23.23
2023-01-19T01:50:16.428Z,24.00
2023-01-19T01:53:07.060Z,23.60
2023-01-19T01:55:38.347Z,25.73
2023-01-19T01:58:08.497Z,25.45
2023-01-19T02:00:53.886Z,23.58
2023-01-19T02:03:23.333Z,24.80
2023-01-19T02:05:50.608Z,25.25
2023-01-19T02:08:43.691Z,26.95
2023-01-19T02:11:29.874Z,23.17
2023-01-19T02:13:56.410Z,24.73
2023-01-19T02:16:23.113Z,26.73
2023-01-19T02:18:49.659Z,26.60
2023-01-19T02:21:24.384Z,28.63
2023-01-19T02:23:52.392Z,24.20
2023-01-19T02:26:41.328Z,24.27
2023-01-19T02:29:11.565Z,24.07
2023-01-19T02:31:39.581Z,23.05
2023-01-19T02:34:09.547Z,25.00
2023-01-19T02:36:41.139Z,25.27
2023-01-19T02:39:09.591Z,25.02
2023-01-19T02:41:42.392Z,22.20
2023-01-19T02:44:10.188Z,24.30
2023-01-19T02:46:37.824Z,23.77
2023-01-19T02:49:04.367Z,25.85
2023-01-19T02:51:30.948Z,22.55
2023-01-19T02:54:20.316Z,21.63
2023-01-19T02:57:39.880Z,24.00
2023-01-19T03:00:09.878Z,23.00
2023-01-19T03:02:47.542Z,23.27
2023-01-19T03:05:50.914Z,22.75
2023-01-19T03:08:23.539Z,21.13
2023-01-19T03:11:11.112Z,23.70
2023-01-19T03:13:57.148Z,22.15
2023-01-19T03:16:44.899Z,24.15
2023-01-19T03:19:23.195Z,25.52
2023-01-19T03:21:55.276Z,20.20
2023-01-19T03:24:25.169Z,22.42
2023-01-19T03:27:02.858Z,22.60
2023-01-19T03:29:35.049Z,22.35
2023-01-19T03:32:06.363Z,22.25
2023-01-19T03:34:35.193Z,22.57
2023-01-19T03:37:04.827Z,20.98
2023-01-19T03:39:31.876Z,20.00
2023-01-19T03:42:11.621Z,21.73
2023-01-19T03:44:40.437Z,22.63
2023-01-19T03:47:10.263Z,21.90
2023-01-19T03:49:37.876Z,23.98
2023-01-19T03:52:04.940Z,23.48
2023-01-19T03:54:32.082Z,22.00
2023-01-19T03:56:58.422Z,21.63
2023-01-19T03:59:24.925Z,21.50
2023-01-19T04:01:51.509Z,21.25
2023-01-19T04:04:18.063Z,21.70
2023-01-19T04:06:44.644Z,23.10
2023-01-19T04:09:11.510Z,24.25
2023-01-19T04:11:37.922Z,21.50
2023-01-19T04:14:04.492Z,22.58
2023-01-19T04:16:31.067Z,20.27
2023-01-19T04:18:57.601Z,22.65
2023-01-19T04:21:24.268Z,21.63
2023-01-19T04:23:50.892Z,25.70
2023-01-19T04:26:17.403Z,23.38
2023-01-19T04:28:43.954Z,23.25
2023-01-19T04:31:10.770Z,25.00
2023-01-19T04:33:37.318Z,22.13
2023-01-19T04:36:04.157Z,22.77
2023-01-19T04:38:30.755Z,25.05
2023-01-19T04:40:57.297Z,23.15
2023-01-19T04:43:24.268Z,26.20
2023-01-19T04:45:51.603Z,23.67
2023-01-19T04:48:18.901Z,24.33
2023-01-19T04:50:46.149Z,24.67
2023-01-19T04:53:13.842Z,21.83
2023-01-19T04:55:40.395Z,24.33
2023-01-19T04:58:06.945Z,20.92
2023-01-19T05:00:33.714Z,20.80
2023-01-19T05:03:01.646Z,22.38
2023-01-19T05:05:28.405Z,24.05
2023-01-19T05:07:55.007Z,23.50
2023-01-19T05:10:21.896Z,22.27
2023-01-19T05:12:48.388Z,19.97
2023-01-19T05:15:14.845Z,21.83
2023-01-19T05:17:41.911Z,21.00
2023-01-19T05:20:11.874Z,21.73
2023-01-19T05:22:39.561Z,21.33
2023-01-19T05:25:09.548Z,22.80
2023-01-19T05:27:38.769Z,22.52
2023-01-19T05:30:06.175Z,21.30
2023-01-19T05:32:32.910Z,21.17
2023-01-19T05:34:59.563Z,22.60
2023-01-19T05:37:26.191Z,21.47
2023-01-19T05:39:53.138Z,25.35
2023-01-19T05:42:19.783Z,23.10
2023-01-19T05:44:46.306Z,23.95
2023-01-19T05:47:13.005Z,23.67
2023-01-19T05:49:39.642Z,25.80
2023-01-19T05:52:06.356Z,22.48
2023-01-19T05:54:33.027Z,22.02
2023-01-19T05:56:59.577Z,23.05
2023-01-19T05:59:26.409Z,20.27
2023-01-19T06:01:53.760Z,23.20
2023-01-19T06:04:20.681Z,21.75
2023-01-19T06:06:48.176Z,22.25
2023-01-19T06:09:14.703Z,21.80
2023-01-19T06:11:41.151Z,21.35
2023-01-19T06:14:10.377Z,21.13
2023-01-19T06:16:37.001Z,22.70
2023-01-19T06:19:03.555Z,23.35
2023-01-19T06:21:30.057Z,21.63
2023-01-19T06:23:56.560Z,23.52
2023-01-19T06:26:23.316Z,25.03
2023-01-19T06:28:51.941Z,23.40
2023-01-19T06:31:18.870Z,22.20
2023-01-19T06:33:47.143Z,22.10
2023-01-19T06:36:13.760Z,21.75
2023-01-19T06:38:40.428Z,19.93
2023-01-19T06:41:06.979Z,24.88
2023-01-19T06:43:33.474Z,22.60
2023-01-19T06:46:03.911Z,24.92
2023-01-19T06:48:30.497Z,23.38
2023-01-19T06:50:58.760Z,23.80
2023-01-19T06:53:27.932Z,21.70
2023-01-19T06:56:02.088Z,23.65
2023-01-19T06:58:30.406Z,20.90
2023-01-19T07:01:04.561Z,22.50
2023-01-19T07:03:32.121Z,24.97
2023-01-19T07:06:02.206Z,24.75
2023-01-19T07:08:30.089Z,26.67
2023-01-19T07:11:25.392Z,24.33
2023-01-19T07:13:57.092Z,27.67
2023-01-19T07:16:23.626Z,22.60
2023-01-19T07:18:50.349Z,23.25
2023-01-19T07:21:17.394Z,26.63
2023-01-19T07:23:44.125Z,22.98
2023-01-19T07:26:10.813Z,22.02
2023-01-19T07:28:38.823Z,21.43
2023-01-19T07:31:05.630Z,24.00
2023-01-19T07:33:32.368Z,20.73
2023-01-19T07:35:58.766Z,22.48
2023-01-19T07:38:25.386Z,49.05
2023-01-19T07:40:51.939Z,22.53
2023-01-19T07:43:18.477Z,62.15
2023-01-19T07:45:45.659Z,29.95
2023-01-19T07:48:12.225Z,23.58
2023-01-19T07:50:38.626Z,57.65
2023-01-19T07:53:09.186Z,28.77
2023-01-19T07:55:35.618Z,20.77
2023-01-19T07:58:05.173Z,25.88
2023-01-19T08:00:31.775Z,26.15
2023-01-19T08:03:02.495Z,26.05
2023-01-19T08:05:29.465Z,25.80
2023-01-19T08:08:00.530Z,23.42
2023-01-19T08:10:28.395Z,23.67
2023-01-19T08:12:56.016Z,21.08
2023-01-19T08:15:24.715Z,33.22
2023-01-19T08:17:56.772Z,23.17
2023-01-19T08:20:23.285Z,21.73
2023-01-19T08:22:49.981Z,20.77
2023-01-19T08:25:16.874Z,21.40
2023-01-19T08:27:43.367Z,26.58
2023-01-19T08:30:10.646Z,22.97
2023-01-19T08:32:37.345Z,23.70
2023-01-19T08:35:04.030Z,27.77
2023-01-19T08:37:31.295Z,22.63
2023-01-19T08:39:58.687Z,30.27
2023-01-19T08:42:25.057Z,27.00
2023-01-19T08:44:58.186Z,26.10
2023-01-19T08:47:25.007Z,20.23
2023-01-19T08:49:51.603Z,21.10
2023-01-19T08:52:17.941Z,22.55
2023-01-19T08:54:44.430Z,20.17
2023-01-19T08:57:10.759Z,20.25
2023-01-19T08:59:38.357Z,22.92
2023-01-19T09:02:04.740Z,20.05
2023-01-19T09:04:33.072Z,22.83
2023-01-19T09:06:59.579Z,20.50
2023-01-19T09:09:26.094Z,18.48
2023-01-19T09:11:54.158Z,19.00
2023-01-19T09:14:20.935Z,19.98
2023-01-19T09:16:47.661Z,21.33
2023-01-19T09:19:14.243Z,17.73
2023-01-19T09:21:41.431Z,19.83
2023-01-19T09:24:09.011Z,18.02
2023-01-19T09:26:36.534Z,19.33
2023-01-19T09:29:03.242Z,19.02
2023-01-19T09:31:30.211Z,19.70
2023-01-19T09:33:56.822Z,19.00
2023-01-19T09:36:23.156Z,17.70
2023-01-19T09:38:49.800Z,21.98
2023-01-19T09:41:21.301Z,17.08
2023-01-19T09:43:59.104Z,16.50
2023-01-19T09:46:33.763Z,17.23
2023-01-19T09:49:05.176Z,15.35
2023-01-19T09:51:41.060Z,19.88
2023-01-19T09:54:36.636Z,17.67
2023-01-19T09:57:05.072Z,16.00
2023-01-19T09:59:33.629Z,23.23
2023-01-19T10:02:13.552Z,18.27
2023-01-19T10:05:11.385Z,19.30
2023-01-19T10:08:15.518Z,16.52
2023-01-19T10:10:47.899Z,16.87
2023-01-19T10:13:14.348Z,17.73
2023-01-19T10:15:55.912Z,20.35
2023-01-19T10:18:43.242Z,15.23
2023-01-19T10:21:16.597Z,15.25
2023-01-19T10:23:46.279Z,15.90
2023-01-19T10:26:22.062Z,14.80
2023-01-19T10:28:51.396Z,15.65
2023-01-19T10:31:21.618Z,14.98
2023-01-19T10:33:53.089Z,18.25
2023-01-19T10:36:27.480Z,14.60
2023-01-19T10:38:54.324Z,14.10
2023-01-19T10:41:44.586Z,14.77
2023-01-19T10:44:12.191Z,15.05
2023-01-19T10:46:43.775Z,13.27
2023-01-19T10:49:24.727Z,15.50
2023-01-19T10:51:51.570Z,15.15
2023-01-19T10:54:18.999Z,14.70
2023-01-19T10:56:53.558Z,15.27
2023-01-19T10:59:38.079Z,13.65
2023-01-19T11:02:10.671Z,14.97
2023-01-19T11:04:37.381Z,14.13
2023-01-19T11:07:14.085Z,29.83
2023-01-19T11:09:40.856Z,13.45
2023-01-19T11:12:17.018Z,15.27
2023-01-19T11:14:43.743Z,15.53
2023-01-19T11:17:20.821Z,14.15
2023-01-19T11:19:59.715Z,15.60
2023-01-19T11:22:29.943Z,20.35
2023-01-19T11:25:02.230Z,13.30
2023-01-19T11:27:31.151Z,15.47
2023-01-19T11:30:21.577Z,12.38
2023-01-19T11:32:49.231Z,11.38
2023-01-19T11:35:40.113Z,13.30
2023-01-19T11:38:27.369Z,12.52
2023-01-19T11:40:58.699Z,12.80
2023-01-19T11:43:43.381Z,12.85
2023-01-19T11:46:15.448Z,12.00
2023-01-19T11:49:03.233Z,12.73
2023-01-19T11:51:39.683Z,12.90
2023-01-19T11:54:19.331Z,11.57
2023-01-19T11:56:48.829Z,12.43
2023-01-19T11:59:15.354Z,13.05
2023-01-19T12:01:51.610Z,11.25
2023-01-19T12:04:27.891Z,13.05
2023-01-19T12:06:56.690Z,11.43
2023-01-19T12:09:46.281Z,11.30
2023-01-19T12:12:40.109Z,12.60
2023-01-19T12:15:17.549Z,11.25
2023-01-19T12:17:49.342Z,9.25
2023-01-19T12:20:44.827Z,10.97
2023-01-19T12:23:11.428Z,11.98
2023-01-19T12:25:53.909Z,11.55
2023-01-19T12:28:26.962Z,10.00
2023-01-19T12:30:54.055Z,10.98
2023-01-19T12:33:26.761Z,10.43
2023-01-19T12:35:53.743Z,11.73
2023-01-19T12:38:24.731Z,13.50
2023-01-19T12:41:05.547Z,11.98
2023-01-19T12:43:31.988Z,9.63
2023-01-19T12:45:58.579Z,14.70
2023-01-19T12:48:27.464Z,13.18
2023-01-19T12:50:54.023Z,13.75
2023-01-19T12:53:22.642Z,11.75
2023-01-19T12:56:00.102Z,13.05
2023-01-19T12:58:27.277Z,12.57
2023-01-19T13:01:16.297Z,13.57
2023-01-19T13:04:00.025Z,16.40
2023-01-19T13:06:48.633Z,15.18
2023-01-19T13:09:32.347Z,14.02
2023-01-19T13:12:14.128Z,14.13
2023-01-19T13:14:43.481Z,13.32
2023-01-19T13:17:38.729Z,12.55
2023-01-19T13:20:22.713Z,11.98
2023-01-19T13:22:51.092Z,13.82
2023-01-19T13:25:34.252Z,16.63
2023-01-19T13:28:02.129Z,12.65
2023-01-19T13:30:30.039Z,16.48
2023-01-19T13:33:15.413Z,16.02
2023-01-19T13:35:51.389Z,13.07
2023-01-19T13:38:18.183Z,15.60
2023-01-19T13:40:45.844Z,14.48
2023-01-19T13:43:21.040Z,17.17
2023-01-19T13:45:53.363Z,15.25
2023-01-19T13:48:22.407Z,13.80
2023-01-19T13:50:57.928Z,17.00
2023-01-19T13:53:24.389Z,13.52
2023-01-19T13:56:10.418Z,14.48
2023-01-19T13:58:37.093Z,12.50
2023-01-19T14:01:03.582Z,15.20
2023-01-19T14:03:30.153Z,16.43
2023-01-19T14:05:56.966Z,14.20
2023-01-19T14:08:25.781Z,13.48
2023-01-19T14:10:52.279Z,13.65
2023-01-19T14:13:21.208Z,16.38
2023-01-19T14:15:49.972Z,11.00
2023-01-19T14:18:16.442Z,13.00
2023-01-19T14:21:09.720Z,14.23
2023-01-19T14:23:48.566Z,15.15
2023-01-19T14:26:51.393Z,15.93
2023-01-19T14:29:40.262Z,12.50
2023-01-19T14:32:13.900Z,14.63
2023-01-19T14:34:43.598Z,11.07
2023-01-19T14:37:16.138Z,11.68
2023-01-19T14:40:04.745Z,11.68
2023-01-19T14:42:35.766Z,10.40
2023-01-19T14:45:07.820Z,11.07
2023-01-19T14:47:40.806Z,10.15
2023-01-19T14:50:26.807Z,9.63
2023-01-19T14:53:04.061Z,12.52
2023-01-19T14:55:47.522Z,11.13
2023-01-19T14:58:16.634Z,11.07
2023-01-19T15:00:44.180Z,12.68
2023-01-19T15:03:10.752Z,11.43
2023-01-19T15:05:42.602Z,12.20
2023-01-19T15:08:25.461Z,12.63
2023-01-19T15:10:53.230Z,10.60
2023-01-19T15:13:22.848Z,12.38
2023-01-19T15:15:50.247Z,10.27
2023-01-19T15:18:20.978Z,10.77
2023-01-19T15:20:47.603Z,11.00
2023-01-19T15:23:13.945Z,12.45
2023-01-19T15:25:40.764Z,11.00
2023-01-19T15:28:13.033Z,11.70
2023-01-19T15:30:39.881Z,12.77
2023-01-19T15:33:06.640Z,21.83
2023-01-19T15:35:33.174Z,13.25
2023-01-19T15:38:00.020Z,12.15
2023-01-19T15:40:26.560Z,17.58
2023-01-19T15:42:53.057Z,17.08
2023-01-19T15:45:38.491Z,18.03
2023-01-19T15:48:07.735Z,12.82
2023-01-19T15:50:37.959Z,15.25
2023-01-19T15:53:04.925Z,15.63
2023-01-19T15:55:31.438Z,12.90
2023-01-19T15:58:02.215Z,11.00
2023-01-19T16:00:30.562Z,28.02
2023-01-19T16:02:57.606Z,15.75
2023-01-19T16:05:37.468Z,23.85
2023-01-19T16:08:08.752Z,19.02
2023-01-19T16:10:35.585Z,22.00
2023-01-19T16:13:03.436Z,18.92
2023-01-19T16:15:29.936Z,13.00
2023-01-19T16:17:56.459Z,18.05
2023-01-19T16:20:22.972Z,19.50
2023-01-19T16:22:49.496Z,18.10
2023-01-19T16:25:16.073Z,18.33
2023-01-19T16:27:42.760Z,29.80
2023-01-19T16:30:12.051Z,39.88
2023-01-19T16:32:39.041Z,34.65
2023-01-19T16:35:06.072Z,21.93
2023-01-19T16:37:32.660Z,18.58
2023-01-19T16:39:59.339Z,17.77
2023-01-19T16:42:25.929Z,13.45
2023-01-19T16:44:52.547Z,13.63
2023-01-19T16:47:19.039Z,13.57
2023-01-19T16:49:45.498Z,12.52
2023-01-19T16:52:11.888Z,14.23
2023-01-19T16:54:43.985Z,14.55
2023-01-19T16:57:11.163Z,13.73
2023-01-19T16:59:39.897Z,12.97
2023-01-19T17:02:10.328Z,12.98
2023-01-19T17:04:36.950Z,12.85
2023-01-19T17:07:03.480Z,12.07
2023-01-19T17:09:30.204Z,10.60
2023-01-19T17:11:58.317Z,12.40
2023-01-19T17:14:24.790Z,13.75
2023-01-19T17:16:51.371Z,10.32
2023-01-19T17:19:19.999Z,10.27
2023-01-19T17:21:49.012Z,13.40
2023-01-19T17:24:16.936Z,13.87
2023-01-19T17:26:45.807Z,14.52
2023-01-19T17:29:12.420Z,14.82
2023-01-19T17:31:39.022Z,12.82
2023-01-19T17:34:05.880Z,12.27
2023-01-19T17:36:33.688Z,13.70
2023-01-19T17:39:04.130Z,13.27
2023-01-19T17:41:32.510Z,16.52
2023-01-19T17:44:04.253Z,14.60
2023-01-19T17:46:31.661Z,14.82
2023-01-19T17:49:01.894Z,15.60
2023-01-19T17:51:29.613Z,17.83
2023-01-19T17:53:56.789Z,19.35
2023-01-19T17:56:28.420Z,20.80
2023-01-19T17:58:56.004Z,21.35
2023-01-19T18:01:27.952Z,31.77
2023-01-19T18:03:54.700Z,47.53
2023-01-19T18:06:22.008Z,22.27
2023-01-19T18:08:49.656Z,18.45
2023-01-19T18:11:18.420Z,19.00
2023-01-19T18:13:46.757Z,15.83
2023-01-19T18:16:16.803Z,18.50
2023-01-19T18:18:44.586Z,16.80
2023-01-19T18:21:14.019Z,16.02
2023-01-19T18:23:43.448Z,16.15
2023-01-19T18:26:21.363Z,16.33
2023-01-19T18:28:49.018Z,16.17
2023-01-19T18:31:17.959Z,16.20
2023-01-19T18:33:45.011Z,14.60
2023-01-19T18:36:11.844Z,16.98
2023-01-19T18:38:38.717Z,17.43
2023-01-19T18:41:07.670Z,17.70
2023-01-19T18:43:34.798Z,17.60
2023-01-19T18:46:01.643Z,16.45
2023-01-19T18:48:28.754Z,21.40
2023-01-19T18:50:55.732Z,24.23
2023-01-19T18:53:22.879Z,23.05
2023-01-19T18:55:54.391Z,19.15
2023-01-19T18:58:21.721Z,21.42
2023-01-19T19:00:49.238Z,16.13
2023-01-19T19:03:16.786Z,15.23
2023-01-19T19:05:43.419Z,14.45
2023-01-19T19:08:10.073Z,14.23
2023-01-19T19:10:36.660Z,13.32
2023-01-19T19:13:03.130Z,15.13
2023-01-19T19:15:29.607Z,13.90
2023-01-19T19:17:56.217Z,13.75
2023-01-19T19:20:23.522Z,12.65
2023-01-19T19:22:51.798Z,16.63
2023-01-19T19:25:18.590Z,14.80
2023-01-19T19:27:47.869Z,15.87
2023-01-19T19:30:15.054Z,14.43
2023-01-19T19:32:41.650Z,15.07
2023-01-19T19:35:08.512Z,15.73
2023-01-19T19:37:35.070Z,16.00
2023-01-19T19:40:01.627Z,19.10
2023-01-19T19:42:30.036Z,18.15
2023-01-19T19:44:56.685Z,20.23
2023-01-19T19:47:24.557Z,15.23
2023-01-19T19:49:51.132Z,14.70
2023-01-19T19:52:17.711Z,17.13
2023-01-19T19:54:45.201Z,18.30
2023-01-19T19:57:11.525Z,16.95
2023-01-19T19:59:38.053Z,16.08
2023-01-19T20:02:04.448Z,14.43
2023-01-19T20:04:31.056Z,18.73
2023-01-19T20:06:59.259Z,16.73
2023-01-19T20:09:25.905Z,17.98
2023-01-19T20:11:52.820Z,18.10
2023-01-19T20:14:19.406Z,17.95
2023-01-19T20:16:45.884Z,23.60
2023-01-19T20:19:12.448Z,20.13
2023-01-19T20:21:44.170Z,21.00
2023-01-19T20:24:18.116Z,20.95
2023-01-19T20:26:53.018Z,21.52
2023-01-19T20:29:20.635Z,17.63
2023-01-19T20:31:53.316Z,19.05
2023-01-19T20:34:22.547Z,16.67
2023-01-19T20:36:51.285Z,17.92
2023-01-19T20:39:18.921Z,18.35
2023-01-19T20:41:45.807Z,26.57
2023-01-19T20:44:15.173Z,28.20
2023-01-19T20:46:42.582Z,29.88
2023-01-19T20:49:08.976Z,22.40
2023-01-19T20:51:37.434Z,19.90
2023-01-19T20:54:04.548Z,19.90
2023-01-19T20:56:31.124Z,20.63
2023-01-19T20:58:58.890Z,20.95
2023-01-19T21:01:26.266Z,18.58
2023-01-19T21:03:52.934Z,22.23
2023-01-19T21:06:21.038Z,20.53
2023-01-19T21:08:49.727Z,20.33
2023-01-19T21:11:19.592Z,20.52
2023-01-19T21:13:47.068Z,20.35
2023-01-19T21:16:13.909Z,24.08
2023-01-19T21:18:40.416Z,13.90
2023-01-19T21:21:10.674Z,12.50
2023-01-19T21:23:42.080Z,19.15
2023-01-19T21:26:08.680Z,26.63
2023-01-19T21:28:35.202Z,21.17
2023-01-19T21:31:08.675Z,19.40
2023-01-19T21:33:35.299Z,15.35
2023-01-19T21:36:01.783Z,14.20
2023-01-19T21:38:29.599Z,14.63
2023-01-19T21:40:57.442Z,13.82
2023-01-19T21:43:25.493Z,11.63
2023-01-19T21:45:54.828Z,12.02
2023-01-19T21:48:21.377Z,11.90
2023-01-19T21:50:56.403Z,15.00
2023-01-19T21:53:22.917Z,13.38
2023-01-19T21:55:49.430Z,13.83
2023-01-19T21:58:15.959Z,13.98
2023-01-19T22:00:42.462Z,12.68
2023-01-19T22:03:09.019Z,14.25
2023-01-19T22:05:37.033Z,12.68
2023-01-19T22:08:05.078Z,14.57
2023-01-19T22:10:31.967Z,14.30
2023-01-19T22:12:58.558Z,12.00
2023-01-19T22:15:24.900Z,13.20
2023-01-19T22:17:51.264Z,12.30
2023-01-19T22:20:17.642Z,12.53
2023-01-19T22:22:44.186Z,13.10
2023-01-19T22:25:11.019Z,11.82
2023-01-19T22:27:38.859Z,12.82
2023-01-19T22:30:05.996Z,13.98
2023-01-19T22:32:32.613Z,15.93
2023-01-19T22:34:59.180Z,16.00
2023-01-19T22:37:25.763Z,14.18
2023-01-19T22:39:53.512Z,17.40
2023-01-19T22:42:19.902Z,16.10
2023-01-19T22:44:46.985Z,16.67
2023-01-19T22:47:13.502Z,17.80
2023-01-19T22:49:40.844Z,14.40
2023-01-19T22:52:07.269Z,15.18
2023-01-19T22:54:34.181Z,14.98
2023-01-19T22:57:00.920Z,14.27
2023-01-19T22:59:27.560Z,14.45
2023-01-19T23:01:53.997Z,15.40
2023-01-19T23:04:20.624Z,13.02
2023-01-19T23:06:50.532Z,13.60
2023-01-19T23:09:17.836Z,14.87
2023-01-19T23:11:50.084Z,13.60
2023-01-19T23:14:19.490Z,13.65
2023-01-19T23:16:47.318Z,14.00
2023-01-19T23:19:14.916Z,12.48
2023-01-19T23:21:41.822Z,11.73
2023-01-19T23:24:08.790Z,14.75
2023-01-19T23:26:38.363Z,13.45
2023-01-19T23:29:07.731Z,13.50
2023-01-19T23:31:36.237Z,12.55
2023-01-19T23:34:05.723Z,14.00
2023-01-19T23:36:33.577Z,14.70
2023-01-19T23:39:06.758Z,13.30
2023-01-19T23:41:37.005Z,13.93
2023-01-19T23:44:03.820Z,15.63
2023-01-19T23:46:30.611Z,13.83
2023-01-19T23:49:00.280Z,14.40
2023-01-19T23:51:29.344Z,15.60
2023-01-19T23:53:57.747Z,14.52
2023-01-19T23:56:27.125Z,14.85
2023-01-19T23:58:56.847Z,14.77
